Time;durP1;ratioP1;P1;durP2;ratioP2;P2;SDS_P1;SDS_P2;PMS_P1;PMS_P2;Temp;Humidity;BMP_temperature;BMP_pressure;BME280_temperature;BME280_humidity;BME280_pressure;Samples;Min_cycle;Max_cycle;Signal;HPM_P1;HPM_P2
2021/04/13 00:05:47;;;;;;;20.35;12.30;;;;;;;5.17;75.18;99623.33;4516463;78;21153;-89
2021/04/13 00:12:03;;;;;;;15.93;11.65;;;;;;;4.96;74.84;99623.77;4480346;79;21587;-89
2021/04/13 00:18:05;;;;;;;19.45;14.03;;;;;;;4.64;74.77;99634.58;4469412;78;21105;-91
2021/04/13 00:24:12;;;;;;;17.12;12.45;;;;;;;4.41;75.20;99633.97;4482594;78;21283;-89
2021/04/13 00:30:18;;;;;;;20.65;14.13;;;;;;;4.28;75.63;99635.45;4470544;79;21144;-91
2021/04/13 00:36:21;;;;;;;18.30;11.50;;;;;;;4.39;76.01;99637.55;4447660;79;21129;-91
2021/04/13 00:42:30;;;;;;;15.05;10.55;;;;;;;4.30;76.15;99635.95;4475122;79;21181;-91
2021/04/13 00:48:37;;;;;;;15.18;11.40;;;;;;;4.00;75.65;99640.38;4430821;79;21117;-91
2021/04/13 00:54:43;;;;;;;10.75;7.92;;;;;;;4.02;76.42;99651.70;4455233;79;21169;-90
2021/04/13 01:00:52;;;;;;;11.35;7.95;;;;;;;3.99;76.25;99660.46;4459722;79;21163;-91
2021/04/13 01:07:01;;;;;;;10.70;7.60;;;;;;;3.97;76.44;99664.58;4398687;81;21126;-90
2021/04/13 01:13:13;;;;;;;8.70;6.47;;;;;;;3.98;76.36;99666.16;4416473;79;21170;-91
2021/04/13 01:19:42;;;;;;;12.35;7.67;;;;;;;3.87;76.06;99667.60;4398655;79;21161;-90
2021/04/13 01:25:48;;;;;;;14.28;11.03;;;;;;;3.82;76.39;99682.64;4438419;79;21164;-90
2021/04/13 01:31:55;;;;;;;15.83;10.75;;;;;;;3.77;76.30;99688.99;4407862;80;21195;-89
2021/04/13 01:44:19;;;;;;;22.62;15.25;;;;;;;3.64;76.69;99687.19;4519815;78;23018;-91
2021/04/13 01:50:31;;;;;;;24.35;16.37;;;;;;;3.65;76.96;99694.76;4407969;80;21131;-90
2021/04/13 01:56:53;;;;;;;24.95;14.78;;;;;;;3.46;76.63;99696.89;4397496;80;21334;-91
2021/04/13 02:03:18;;;;;;;21.35;12.50;;;;;;;3.27;76.56;99696.31;4421887;80;21169;-91
2021/04/13 02:09:37;;;;;;;19.57;13.13;;;;;;;3.22;77.12;99716.19;4385107;80;21131;-91
2021/04/13 02:16:12;;;;;;;19.07;13.00;;;;;;;3.20;77.11;99720.55;4429468;80;21149;-90
2021/04/13 02:22:16;;;;;;;19.80;13.13;;;;;;;3.00;76.54;99723.77;4405893;80;21126;-89
2021/04/13 02:28:18;;;;;;;18.65;11.20;;;;;;;2.77;77.04;99734.30;4401265;80;21152;-90
2021/04/13 02:34:31;;;;;;;17.70;11.00;;;;;;;2.85;77.33;99739.55;4377590;80;21166;-91
2021/04/13 02:41:08;;;;;;;22.55;11.38;;;;;;;2.83;76.80;99740.41;4395954;78;21149;-91
2021/04/13 02:47:13;;;;;;;27.07;10.60;;;;;;;2.65;77.27;99744.86;4432369;78;21160;-91
2021/04/13 02:53:18;;;;;;;17.13;11.53;;;;;;;2.57;77.58;99741.52;4405020;80;21187;-91
2021/04/13 02:59:28;;;;;;;13.48;8.85;;;;;;;2.51;77.41;99740.59;4386729;80;21445;-91
2021/04/13 03:05:30;;;;;;;15.72;10.10;;;;;;;2.55;77.63;99735.61;4418197;80;21160;-91
2021/04/13 03:11:34;;;;;;;14.30;9.18;;;;;;;2.45;77.71;99742.61;4405522;80;21851;-89
2021/04/13 03:17:36;;;;;;;14.30;10.03;;;;;;;2.41;77.66;99737.55;4376367;80;21719;-90
2021/04/13 03:23:38;;;;;;;16.45;9.98;;;;;;;2.40;78.14;99737.31;4382532;80;21163;-89
2021/04/13 03:29:54;;;;;;;14.78;10.35;;;;;;;2.49;78.01;99746.87;4397502;80;21736;-88
2021/04/13 03:36:05;;;;;;;11.83;8.33;;;;;;;2.53;78.25;99760.01;4424892;80;21155;-89
2021/04/13 03:42:15;;;;;;;20.62;11.03;;;;;;;2.32;78.19;99760.98;4418533;80;21742;-90
2021/04/13 03:48:24;;;;;;;18.77;11.93;;;;;;;2.34;78.36;99763.39;4416205;80;21138;-91
2021/04/13 03:54:31;;;;;;;17.00;10.30;;;;;;;2.40;78.69;99760.83;4409443;79;21591;-91
2021/04/13 04:00:32;;;;;;;;;;;;;;;2.36;78.55;99770.11;4445132;78;21207;-91
2021/04/13 04:06:54;;;;;;;17.82;11.10;;;;;;;2.47;79.10;99781.49;4428987;80;20424;-90
2021/04/13 04:13:23;;;;;;;17.62;11.65;;;;;;;2.40;78.67;99774.33;4419701;80;21125;-92
2021/04/13 04:19:26;;;;;;;21.95;13.13;;;;;;;2.35;78.67;99784.70;4419242;79;21607;-92
2021/04/13 04:25:45;;;;;;;18.98;11.93;;;;;;;2.44;79.18;99796.42;4428737;80;21142;-92
2021/04/13 04:31:48;;;;;;;16.65;11.65;;;;;;;2.51;79.01;99802.20;4431522;80;21149;-92
2021/04/13 04:38:04;;;;;;;22.22;12.85;;;;;;;2.43;78.77;99809.66;4420093;78;21165;-91
2021/04/13 04:44:05;;;;;;;13.67;9.37;;;;;;;2.44;78.92;99820.74;4411798;80;21170;-92
2021/04/13 04:50:10;;;;;;;17.45;11.57;;;;;;;2.37;79.21;99827.63;4422918;80;21122;-90
2021/04/13 04:56:12;;;;;;;17.90;11.57;;;;;;;2.37;79.07;99829.79;4401811;80;21145;-90
2021/04/13 05:02:14;;;;;;;15.95;10.98;;;;;;;2.38;79.19;99834.09;4422929;80;21916;-90
2021/04/13 05:08:16;;;;;;;20.68;11.57;;;;;;;2.34;79.22;99843.91;4404034;80;21583;-91
2021/04/13 05:14:17;;;;;;;16.85;10.78;;;;;;;2.37;79.20;99842.49;4406165;80;21600;-92
2021/04/13 05:20:19;;;;;;;15.60;10.58;;;;;;;2.41;79.41;99848.34;4409240;80;21944;-93
2021/04/13 05:26:21;;;;;;;15.90;10.03;;;;;;;2.42;79.19;99851.31;4419748;80;21155;-92
2021/04/13 05:32:22;;;;;;;15.78;10.68;;;;;;;2.40;79.11;99851.34;4418605;80;21846;-91
2021/04/13 05:38:37;;;;;;;16.70;10.38;;;;;;;2.44;79.33;99855.06;4398032;80;21178;-92
2021/04/13 05:44:39;;;;;;;14.83;10.78;;;;;;;2.48;79.15;99863.63;4264062;83;21133;-92
2021/04/13 05:50:44;;;;;;;16.27;10.48;;;;;;;2.44;79.41;99865.33;4260229;81;21120;-91
2021/04/13 05:56:45;;;;;;;16.00;10.72;;;;;;;2.48;79.60;99860.11;4288438;83;21284;-90
2021/04/13 06:02:48;;;;;;;15.55;10.05;;;;;;;2.48;79.71;99871.73;4284484;82;21154;-90
2021/04/13 06:08:49;;;;;;;17.70;11.38;;;;;;;2.58;79.38;99874.23;4284561;83;21149;-91
2021/04/13 06:14:51;;;;;;;16.02;10.60;;;;;;;2.67;79.70;99883.23;4281054;82;21472;-89
2021/04/13 06:20:53;;;;;;;15.08;9.48;;;;;;;2.75;79.48;99885.78;4138743;82;26570;-89
2021/04/13 06:26:54;;;;;;;17.23;9.33;;;;;;;2.68;79.13;99896.19;4189539;84;21157;-91
2021/04/13 06:32:59;;;;;;;16.12;9.95;;;;;;;2.71;79.16;99905.85;4197150;84;21624;-91
2021/04/13 06:39:00;;;;;;;17.48;9.68;;;;;;;2.77;79.46;99916.03;4221725;84;21339;-92
2021/04/13 06:45:20;;;;;;;15.63;10.70;;;;;;;2.71;79.35;99918.59;4183957;84;21199;-90
2021/04/13 06:51:32;;;;;;;37.45;17.95;;;;;;;2.73;79.17;99919.88;4186118;84;21157;-91
2021/04/13 06:58:06;;;;;;;17.62;10.68;;;;;;;2.77;79.63;99918.16;4193581;84;21599;-92
2021/04/13 07:04:37;;;;;;;15.00;9.63;;;;;;;2.89;79.43;99919.02;4202737;84;21643;-91
2021/04/13 07:10:48;;;;;;;18.30;10.28;;;;;;;2.89;79.33;99925.77;4188031;84;21513;-91
2021/04/13 07:17:09;;;;;;;16.75;9.65;;;;;;;2.99;79.50;99933.13;4135557;84;21181;-91
2021/04/13 07:23:17;;;;;;;14.40;9.33;;;;;;;3.11;79.36;99929.91;4095450;85;21217;-90
2021/04/13 07:29:44;;;;;;;14.30;9.55;;;;;;;3.14;79.14;99929.30;4090692;87;21642;-90
2021/04/13 07:35:46;;;;;;;14.55;9.03;;;;;;;3.11;79.11;99929.91;4141038;85;23326;-90
2021/04/13 07:41:57;;;;;;;16.45;8.63;;;;;;;3.05;79.04;99923.01;4185171;84;21627;-90
2021/04/13 07:48:10;;;;;;;28.85;15.10;;;;;;;3.19;79.34;99925.91;4137428;85;21162;-91
2021/04/13 07:54:32;;;;;;;10.93;6.78;;;;;;;3.14;78.36;99927.41;4099037;86;21165;-90
2021/04/13 08:00:40;;;;;;;16.00;10.95;;;;;;;3.15;79.15;99934.95;4106327;86;21171;-89
2021/04/13 08:07:00;;;;;;;9.50;4.62;;;;;;;3.17;78.69;99938.16;4094005;86;21206;-91
2021/04/13 08:13:07;;;;;;;8.45;4.70;;;;;;;3.23;78.78;99936.16;4142572;86;21295;-91
2021/04/13 08:19:32;;;;;;;;;;;;;;;3.21;78.57;99934.54;4102802;86;21197;-89
2021/04/13 08:25:44;;;;;;;14.15;6.97;;;;;;;3.20;79.13;99938.91;4104035;84;26191;-91
2021/04/13 08:38:44;;;;;;;6.03;4.03;;;;;;;3.30;78.78;99936.53;4138988;86;21159;-90
2021/04/13 08:45:03;;;;;;;7.72;4.72;;;;;;;3.38;79.03;99931.21;4147105;84;23615;-89
2021/04/13 08:51:22;;;;;;;5.87;3.17;;;;;;;3.51;78.93;99925.51;4079555;86;21201;-89
2021/04/13 08:57:40;;;;;;;6.60;3.77;;;;;;;3.49;78.79;99930.42;4052080;86;21365;-89
2021/04/13 09:03:43;;;;;;;6.25;4.12;;;;;;;3.41;78.85;99933.30;4049873;86;21184;-91
2021/04/13 09:09:53;;;;;;;7.30;3.92;;;;;;;3.51;79.06;99925.51;4070290;85;21301;-89
2021/04/13 09:16:12;;;;;;;6.28;3.40;;;;;;;3.63;78.98;99922.50;4051838;86;21949;-90
2021/04/13 09:22:25;;;;;;;8.40;4.42;;;;;;;3.80;78.78;99913.16;4079794;86;21332;-90
2021/04/13 09:28:44;;;;;;;12.20;7.40;;;;;;;3.95;78.58;99910.05;4096942;84;25913;-90
2021/04/13 09:35:00;;;;;;;18.12;10.65;;;;;;;4.02;78.68;99909.63;4106348;86;21167;-91
2021/04/13 09:41:23;;;;;;;12.15;8.75;;;;;;;4.04;78.71;99903.34;4594541;76;23309;-89
2021/04/13 09:47:53;;;;;;;9.45;5.60;;;;;;;4.05;79.03;99903.03;4487449;78;21440;-91
2021/04/13 09:54:24;;;;;;;14.15;7.50;;;;;;;4.10;78.60;99899.39;4496124;78;21141;-90
2021/04/13 10:00:42;;;;;;;7.60;5.60;;;;;;;4.10;78.61;99891.27;4491694;78;21125;-92
2021/04/13 10:07:04;;;;;;;12.13;6.47;;;;;;;4.24;78.46;99891.98;4497093;78;21114;-91
2021/04/13 10:13:25;;;;;;;8.88;6.33;;;;;;;4.23;78.08;99893.87;4487493;78;21124;-90
2021/04/13 10:19:48;;;;;;;24.60;8.70;;;;;;;3.97;78.10;99889.42;4489725;78;21125;-91
2021/04/13 10:26:16;;;;;;;22.52;9.58;;;;;;;3.82;78.10;99884.41;4496277;78;21141;-91
2021/04/13 10:33:07;;;;;;;12.73;7.28;;;;;;;3.65;78.11;99879.66;4496420;78;21307;-90
2021/04/13 10:39:43;;;;;;;14.03;6.67;;;;;;;3.78;78.29;99867.97;4483489;78;21144;-92
2021/04/13 10:46:16;;;;;;;8.48;4.90;;;;;;;3.84;78.08;99872.14;4489280;78;21156;-93
2021/04/13 10:52:47;;;;;;;6.50;4.90;;;;;;;3.93;77.83;99867.56;4493741;78;21590;-92
2021/04/13 10:59:18;;;;;;;17.23;6.80;;;;;;;3.92;77.56;99859.20;4495700;79;21482;-92
2021/04/13 11:06:09;;;;;;;21.77;9.90;;;;;;;4.05;77.71;99856.98;4485385;78;21183;-90
2021/04/13 11:12:50;;;;;;;17.92;8.38;;;;;;;4.16;77.48;99845.30;4487360;78;21139;-92
2021/04/13 11:19:06;;;;;;;32.33;12.80;;;;;;;4.19;77.48;99836.55;4485830;78;21133;-92
2021/04/13 11:25:54;;;;;;;24.12;7.55;;;;;;;4.27;76.73;99834.44;4482707;78;21125;-92
2021/04/13 11:32:39;;;;;;;6.05;3.27;;;;;;;4.26;77.01;99831.49;4478859;78;21148;-91
2021/04/13 11:38:52;;;;;;;8.05;4.45;;;;;;;4.32;76.41;99826.95;4488310;78;21159;-91
2021/04/13 11:45:25;;;;;;;7.03;5.15;;;;;;;4.43;76.38;99821.48;4485379;78;21620;-91
2021/04/13 11:51:32;;;;;;;7.97;4.60;;;;;;;4.64;76.35;99818.44;4495711;79;21193;-90
2021/04/13 11:58:06;;;;;;;13.80;7.72;;;;;;;4.99;76.54;99811.70;4490272;78;21121;-91
2021/04/13 12:04:11;;;;;;;10.98;4.70;;;;;;;5.07;75.73;99813.08;4493787;78;21903;-91
2021/04/13 12:10:37;;;;;;;4.37;2.70;;;;;;;5.07;75.38;99804.13;4443235;78;21097;-89
2021/04/13 12:16:51;;;;;;;6.55;3.85;;;;;;;4.96;74.99;99805.01;4493028;79;21171;-91
2021/04/13 12:23:08;;;;;;;18.92;5.47;;;;;;;4.74;74.38;99804.56;4484442;79;21112;-90
2021/04/13 12:29:33;;;;;;;7.95;4.35;;;;;;;4.87;73.59;99792.55;4497046;78;21184;-91
2021/04/13 12:35:56;;;;;;;13.83;4.22;;;;;;;4.90;74.17;99768.30;4483860;78;21209;-92
2021/04/13 12:42:01;;;;;;;9.13;3.90;;;;;;;4.64;74.51;99770.98;4494121;77;21593;-92
2021/04/13 12:48:17;;;;;;;8.23;4.42;;;;;;;4.89;75.27;99769.41;4489360;78;21441;-91
2021/04/13 12:54:32;;;;;;;14.23;7.00;;;;;;;5.14;74.94;99761.81;4497268;78;21168;-89
2021/04/13 13:00:38;;;;;;;18.12;6.62;;;;;;;5.06;74.27;99755.05;4474998;78;21125;-91
2021/04/13 13:06:53;;;;;;;9.25;3.80;;;;;;;4.81;74.31;99745.23;4487688;78;21626;-91
2021/04/13 13:13:08;;;;;;;6.55;3.62;;;;;;;4.90;74.75;99753.38;4484433;78;21149;-91
2021/04/13 13:19:15;;;;;;;13.55;4.80;;;;;;;4.77;74.26;99744.83;4482800;78;21585;-91
2021/04/13 13:25:26;;;;;;;11.88;5.35;;;;;;;4.79;74.51;99746.09;4485782;78;21489;-89
2021/04/13 13:31:32;;;;;;;13.50;6.67;;;;;;;4.89;74.58;99736.84;4380053;80;21228;-90
2021/04/13 13:37:47;;;;;;;14.55;7.08;;;;;;;4.89;74.95;99742.85;4356949;80;21602;-92
2021/04/13 13:43:49;;;;;;;6.95;4.33;;;;;;;4.95;74.62;99731.49;4346872;81;21198;-91
2021/04/13 13:49:56;;;;;;;13.60;6.05;;;;;;;4.92;74.84;99726.70;4347165;80;21141;-90
2021/04/13 13:56:05;;;;;;;9.38;4.67;;;;;;;4.73;74.95;99726.22;4347664;80;21209;-90
2021/04/13 14:02:15;;;;;;;14.10;6.00;;;;;;;4.64;75.83;99726.23;4343215;80;21155;-91
2021/04/13 14:08:34;;;;;;;6.17;3.50;;;;;;;4.51;75.46;99724.45;4351752;81;21159;-90
2021/04/13 14:14:39;;;;;;;13.83;7.47;;;;;;;4.41;75.33;99713.94;4300919;80;21487;-90
2021/04/13 14:21:03;;;;;;;6.67;3.72;;;;;;;4.09;75.93;99719.75;4350683;80;21643;-91
2021/04/13 14:27:17;;;;;;;12.82;7.22;;;;;;;3.95;75.99;99706.88;4349883;80;21634;-91
2021/04/13 14:33:20;;;;;;;9.30;4.00;;;;;;;3.95;76.29;99696.05;4351867;80;21201;-91
2021/04/13 14:39:25;;;;;;;7.00;4.47;;;;;;;3.99;76.57;99701.64;4339931;80;21174;-90
2021/04/13 14:45:27;;;;;;;11.08;4.80;;;;;;;3.89;76.25;99702.73;4343379;80;21931;-89
2021/04/13 14:51:29;;;;;;;8.53;4.08;;;;;;;3.81;76.44;99693.20;4340857;81;21651;-91
2021/04/13 14:57:30;;;;;;;7.67;4.05;;;;;;;3.88;76.82;99684.89;4350755;80;21157;-92
2021/04/13 15:03:32;;;;;;;8.03;4.65;;;;;;;3.87;76.80;99687.34;4358792;81;21167;-93
2021/04/13 15:09:39;;;;;;;10.20;4.83;;;;;;;3.92;77.04;99690.45;4352223;80;21102;-91
2021/04/13 15:15:49;;;;;;;18.95;9.15;;;;;;;3.91;77.25;99694.28;4353545;80;21196;-92
2021/04/13 15:21:54;;;;;;;27.50;9.67;;;;;;;3.87;77.66;99686.56;4344847;80;21494;-91
2021/04/13 15:28:05;;;;;;;36.03;11.60;;;;;;;3.77;77.68;99681.42;4381514;80;21140;-91
2021/04/13 15:34:27;;;;;;;12.30;7.12;;;;;;;3.69;77.55;99675.41;4335700;80;21201;-90
2021/04/13 15:51:26;;;;;;;28.25;10.05;;;;;;;3.62;79.00;99671.02;4437251;77;22318;-89
2021/04/13 15:57:28;;;;;;;15.35;8.38;;;;;;;3.53;78.47;99672.87;4344942;80;21368;-90
2021/04/13 16:03:30;;;;;;;11.22;7.30;;;;;;;3.51;78.66;99669.70;4331297;80;21216;-89
2021/04/13 16:09:32;;;;;;;18.77;9.98;;;;;;;3.41;78.85;99661.84;4263523;81;21209;-90
2021/04/13 16:15:34;;;;;;;27.67;10.98;;;;;;;3.26;79.17;99654.14;4336260;79;21224;-90
2021/04/13 16:21:36;;;;;;;11.85;8.35;;;;;;;3.30;79.25;99657.80;4194548;82;21663;-90
2021/04/13 16:27:37;;;;;;;21.33;10.00;;;;;;;3.20;79.10;99657.52;4340411;79;21666;-89
2021/04/13 16:33:39;;;;;;;17.73;9.58;;;;;;;3.06;79.34;99664.38;4344565;80;21212;-89
2021/04/13 16:40:09;;;;;;;28.52;11.50;;;;;;;2.99;79.78;99669.41;4337751;80;21252;-89
2021/04/13 16:46:22;;;;;;;22.50;11.50;;;;;;;2.86;79.98;99668.13;4355414;81;21592;-89
2021/04/13 16:52:27;;;;;;;21.82;11.10;;;;;;;2.70;80.00;99647.43;4352548;79;21180;-89
2021/04/13 16:58:30;;;;;;;26.25;12.90;;;;;;;2.76;80.01;99668.37;4344633;79;21188;-88
2021/04/13 17:04:58;;;;;;;39.73;16.35;;;;;;;2.72;80.16;99661.98;4355953;79;21212;-89
2021/04/13 17:11:13;;;;;;;37.83;16.35;;;;;;;2.68;80.36;99656.94;4371424;81;21148;-89
2021/04/13 17:17:48;;;;;;;29.65;16.48;;;;;;;2.66;80.33;99645.65;4340028;81;21203;-88
2021/04/13 17:23:53;;;;;;;18.50;12.05;;;;;;;2.72;80.76;99662.80;4309715;81;21191;-90
2021/04/13 17:30:28;;;;;;;48.07;19.10;;;;;;;2.77;80.71;99664.00;4379793;80;21147;-89
2021/04/13 17:36:42;;;;;;;28.85;12.43;;;;;;;2.71;80.37;99661.75;4330774;81;21185;-91
2021/04/13 17:49:49;;;;;;;18.45;11.78;;;;;;;2.33;81.55;99676.16;4294652;80;21166;-92
2021/04/13 17:56:28;;;;;;;29.48;13.53;;;;;;;2.24;81.42;99683.92;4262103;80;21990;-91
2021/04/13 18:03:06;;;;;;;16.37;11.12;;;;;;;2.26;82.59;99683.05;4253441;80;21158;-90
2021/04/13 18:09:39;;;;;;;21.35;12.03;;;;;;;2.24;81.60;99690.68;4269637;80;21110;-92
2021/04/13 18:15:45;;;;;;;14.65;10.98;;;;;;;2.30;82.07;99692.16;4262595;79;21208;-90
2021/04/13 18:21:57;;;;;;;18.03;10.13;;;;;;;2.26;81.85;99691.96;4254966;81;21199;-91
2021/04/13 18:28:23;;;;;;;18.10;9.95;;;;;;;2.27;81.69;99698.95;4259868;81;21173;-90
2021/04/13 18:34:46;;;;;;;20.35;13.43;;;;;;;2.25;81.93;99702.53;4279757;80;21122;-89
2021/04/13 18:40:56;;;;;;;19.85;10.70;;;;;;;2.22;81.95;99703.14;4272046;81;21127;-90
2021/04/13 18:47:03;;;;;;;25.62;12.75;;;;;;;2.21;81.90;99708.84;4270213;81;21654;-90
2021/04/13 18:53:15;;;;;;;19.80;12.93;;;;;;;2.14;81.67;99714.66;4280292;80;21239;-91
2021/04/13 18:59:53;;;;;;;26.10;16.10;;;;;;;2.09;82.29;99707.19;4190269;82;21185;-90
2021/04/13 19:06:00;;;;;;;30.00;16.23;;;;;;;2.16;82.01;99704.90;4274322;80;21238;-89
2021/04/13 19:12:08;;;;;;;33.85;17.65;;;;;;;2.08;82.18;99703.71;4248610;81;21227;-89
2021/04/13 19:18:27;;;;;;;26.57;15.15;;;;;;;2.04;82.13;99709.45;4271388;80;21205;-89
2021/04/13 19:24:53;;;;;;;23.75;15.58;;;;;;;2.04;82.25;99704.59;4252391;81;21771;-89
2021/04/13 19:31:09;;;;;;;20.97;14.58;;;;;;;1.99;81.86;99696.05;4245084;82;21217;-89
2021/04/13 19:37:41;;;;;;;23.27;15.03;;;;;;;1.99;81.86;99696.05;4251823;82;21175;-89
2021/04/13 19:43:49;;;;;;;23.40;14.30;;;;;;;1.89;82.18;99694.92;4265189;82;21885;-88
2021/04/13 19:49:54;;;;;;;21.62;14.28;;;;;;;1.89;82.18;99694.92;4188304;82;21647;-90
2021/04/13 19:55:57;;;;;;;18.62;13.55;;;;;;;1.98;81.87;99687.70;4268082;80;21191;-89
2021/04/13 20:02:02;;;;;;;25.30;15.80;;;;;;;1.98;81.87;99687.70;4267064;80;21695;-89
2021/04/13 20:14:27;;;;;;;21.85;15.45;;;;;;;1.93;81.66;99678.92;4456316;78;23483;-88
2021/04/13 20:20:34;;;;;;;24.50;16.10;;;;;;;1.85;81.72;99680.41;4393136;80;21655;-87
2021/04/13 20:26:41;;;;;;;26.00;16.85;;;;;;;1.83;81.36;99673.19;4364014;80;21184;-87
2021/04/13 20:32:51;;;;;;;26.90;17.65;;;;;;;1.83;81.36;99673.19;4390126;79;21161;-87
2021/04/13 20:39:00;;;;;;;29.18;17.30;;;;;;;1.45;81.53;99664.48;4357931;80;21570;-87
2021/04/13 20:45:06;;;;;;;41.75;24.07;;;;;;;1.63;81.95;99656.83;4398574;80;21188;-85
2021/04/13 20:51:42;;;;;;;46.18;26.68;;;;;;;1.63;81.95;99656.83;4396371;80;21147;-86
2021/04/13 20:57:49;;;;;;;51.53;28.73;;;;;;;1.69;81.78;99655.39;4390092;80;21589;-86
2021/04/13 21:03:52;;;;;;;;;;;;;;;1.69;81.80;99652.15;4395702;80;21169;-86
2021/04/13 21:09:58;;;;;;;57.35;32.63;;;;;;;1.69;81.94;99641.35;4396151;80;20159;-86
2021/04/13 21:16:04;;;;;;;63.95;32.28;;;;;;;1.69;81.80;99640.00;4421649;80;21157;-86
2021/04/13 21:22:38;;;;;;;64.47;32.87;;;;;;;1.73;81.69;99635.59;4419018;80;21176;-86
2021/04/13 21:28:48;;;;;;;56.95;33.13;;;;;;;1.69;81.65;99627.86;4411475;80;21316;-87
2021/04/13 21:35:10;;;;;;;48.28;29.12;;;;;;;1.61;81.64;99632.03;4374899;80;21323;-85
2021/04/13 21:41:20;;;;;;;56.95;30.43;;;;;;;1.44;81.60;99618.92;4405447;80;21201;-85
2021/04/13 21:47:32;;;;;;;53.80;28.98;;;;;;;1.46;81.93;99618.86;4417211;80;21177;-85
2021/04/13 21:53:42;;;;;;;53.95;30.77;;;;;;;1.40;81.98;99616.02;4342026;80;21165;-86
2021/04/13 22:00:15;;;;;;;71.28;36.00;;;;;;;1.21;81.55;99616.66;4373411;80;21130;-88
2021/04/13 22:06:33;;;;;;;68.22;36.10;;;;;;;1.28;82.31;99617.08;4418354;81;21166;-89
2021/04/13 22:12:37;;;;;;;73.90;37.13;;;;;;;1.28;82.31;99617.08;4394721;80;21567;-88
2021/04/13 22:18:42;;;;;;;82.10;40.40;;;;;;;1.35;81.95;99617.46;4418831;81;21130;-89
2021/04/13 22:24:44;;;;;;;80.57;39.90;;;;;;;1.17;82.20;99592.74;4419323;81;21169;-89
2021/04/13 22:31:00;;;;;;;62.95;35.80;;;;;;;1.24;82.24;99608.50;4419230;81;21598;-91
2021/04/13 22:37:23;;;;;;;62.23;34.30;;;;;;;1.09;82.20;99603.41;4418496;81;21150;-87
2021/04/13 22:43:42;;;;;;;61.20;32.75;;;;;;;1.07;82.67;99601.55;4418915;81;21626;-89
2021/04/13 22:49:43;;;;;;;64.95;33.78;;;;;;;1.05;82.53;99600.50;4419246;81;21142;-89
2021/04/13 22:55:49;;;;;;;71.82;38.83;;;;;;;1.20;82.62;99601.58;4363832;80;21624;-88
2021/04/13 23:01:51;;;;;;;89.15;39.67;;;;;;;1.00;82.30;99572.84;4342142;82;21159;-89
2021/04/13 23:07:52;;;;;;;82.80;36.15;;;;;;;1.17;82.65;99587.34;4339729;82;21139;-90
2021/04/13 23:13:54;;;;;;;70.80;35.88;;;;;;;1.17;82.65;99587.34;4338008;82;21163;-90
2021/04/13 23:19:55;;;;;;;74.15;35.70;;;;;;;1.28;82.49;99582.01;4339139;82;21158;-88
2021/04/13 23:25:58;;;;;;;69.53;34.27;;;;;;;1.28;82.49;99582.01;4338203;81;21151;-91
2021/04/13 23:31:59;;;;;;;64.55;33.00;;;;;;;1.43;82.59;99584.39;4338500;81;21286;-90
2021/04/13 23:38:01;;;;;;;58.55;31.75;;;;;;;1.43;82.59;99584.39;4338294;82;21584;-89
2021/04/13 23:44:02;;;;;;;60.25;33.28;;;;;;;1.44;82.27;99564.97;4338877;82;21174;-88
2021/04/13 23:50:07;;;;;;;54.00;30.68;;;;;;;1.17;82.14;99557.69;4353065;81;21203;-89
2021/04/13 23:56:08;;;;;;;52.95;29.72;;;;;;;1.02;82.66;99553.91;4364332;81;21159;-89
